»·PEaware :: N112PC KSUN-KBZN

N112PC :: KSUN-KBZN

FLIGHT INFORMATION

Flight Status: Arrived
Operator: Privately registered:
United States
More flights under this callsign
Pilot: Gabor H. (24209)
Aircraft: PILATUS PC-12 EAGLE
(PC12)
More flights by this aircraft type
Origin: KSUN Friedman Meml
United States
Destination: KBZN Gallatin
United States
More flights between these airports :: More routes between these airports
Route: +AUREL3 REAPS DLN BZN
File this flight plan on PilotEdge
Remarks:
Altitude:
(Current/Filed)
23,000ft
Speed:
(Current/Filed)
260kts
Departed: 30-May-19 11:49 AM
Arrived: 30-May-19 12:46 PM
Distance/Time
Traveled:
191nm/0:57
Distance/Time
To Go:
Arrived

Flight Plot

Page will automatically refresh every two minutes.

Flight plan parsing failed; only flown route is shown


Map Options




Map Legend


Flown Route
Filed Route
Departure Airport
Arrival Airport
Navaid (VOR, NDB)
Fix

Horizontal Profiles

Position Reports

Time Latitude Longitude Heading Altitude Ground
Speed
30-May-19 11:33 43.500369 -114.295040 356 5303ft 0kts
30-May-19 11:34 43.500369 -114.295040 356 5303ft 0kts
30-May-19 11:35 43.500369 -114.295040 356 5303ft 0kts
30-May-19 11:36 43.500369 -114.295040 356 5303ft 0kts
30-May-19 11:37 43.500369 -114.295040 356 5303ft 0kts
30-May-19 11:38 43.500369 -114.295040 356 5303ft 0kts
30-May-19 11:39 43.500369 -114.295040 356 5303ft 0kts
30-May-19 11:40 43.500369 -114.295040 356 5303ft 0kts
30-May-19 11:41 43.500370 -114.295040 356 5303ft 0kts
30-May-19 11:42 43.500370 -114.295040 356 5303ft 0kts
30-May-19 11:43 43.501362 -114.294763 330 5303ft 10kts
30-May-19 11:44 43.504967 -114.297819 327 5303ft 12kts
30-May-19 11:45 43.508429 -114.301115 325 5303ft 18kts
30-May-19 11:46 43.511523 -114.304058 325 5303ft 11kts
30-May-19 11:47 43.511765 -114.304246 12 5303ft 0kts
30-May-19 11:48 43.509254 -114.300840 144 5303ft 82kts
30-May-19 11:49 43.479919 -114.274514 158 6806ft 151kts
30-May-19 11:50 43.436844 -114.257737 164 8531ft 169kts
30-May-19 11:51 43.389027 -114.240582 165 9957ft 196kts
30-May-19 11:52 43.334134 -114.219328 158 11295ft 214kts
30-May-19 11:53 43.280714 -114.182317 151 12767ft 217kts
30-May-19 11:54 43.227445 -114.141851 151 14272ft 219kts
30-May-19 11:55 43.174370 -114.099688 137 15767ft 222kts
30-May-19 11:56 43.189175 -114.030719 19 17269ft 234kts
30-May-19 11:57 43.252844 -114.012955 16 18774ft 232kts
30-May-19 11:58 43.312464 -113.982175 25 20270ft 226kts
30-May-19 11:59 43.368329 -113.945058 28 21764ft 220kts
30-May-19 12:00 43.422235 -113.906993 28 23045ft 224kts
30-May-19 12:01 43.481592 -113.864347 28 23149ft 253kts
30-May-19 12:02 43.545229 -113.818443 28 23149ft 260kts
30-May-19 12:03 43.609512 -113.771832 28 23147ft 261kts
30-May-19 12:04 43.673773 -113.725290 28 23136ft 262kts
30-May-19 12:05 43.738491 -113.678282 28 23132ft 262kts
30-May-19 12:06 43.802938 -113.631325 28 23127ft 262kts
30-May-19 12:07 43.867462 -113.584186 28 23123ft 262kts
30-May-19 12:08 43.931944 -113.536955 28 23120ft 266kts
30-May-19 12:09 43.998432 -113.488120 28 23117ft 272kts
30-May-19 12:10 44.066104 -113.438296 28 23114ft 275kts
30-May-19 12:11 44.133975 -113.388200 28 23111ft 276kts
30-May-19 12:12 44.201901 -113.337933 28 23114ft 276kts
30-May-19 12:13 44.269599 -113.287702 28 23113ft 276kts
30-May-19 12:14 44.337526 -113.237169 29 23112ft 276kts
30-May-19 12:15 44.405606 -113.186386 29 23108ft 276kts
30-May-19 12:16 44.473460 -113.135640 29 23106ft 276kts
30-May-19 12:18 44.541317 -113.084756 29 23101ft 276kts
30-May-19 12:19 44.610221 -113.032933 29 22723ft 284kts
30-May-19 12:20 44.679762 -112.980493 29 22041ft 285kts
30-May-19 12:21 44.749752 -112.927584 29 21043ft 285kts
30-May-19 12:22 44.819712 -112.874551 29 20042ft 285kts
30-May-19 12:23 44.889996 -112.821110 29 19055ft 287kts
30-May-19 12:24 44.958891 -112.768615 29 18042ft 280kts
30-May-19 12:25 45.028319 -112.715556 28 17043ft 283kts
30-May-19 12:26 45.097437 -112.662598 28 16046ft 283kts
30-May-19 12:27 45.166819 -112.608616 34 14825ft 285kts
30-May-19 12:28 45.213875 -112.517910 59 13252ft 288kts
30-May-19 12:29 45.253123 -112.423633 59 13008ft 275kts
30-May-19 12:30 45.291467 -112.330656 59 13030ft 273kts
30-May-19 12:31 45.329801 -112.237326 59 13032ft 273kts
30-May-19 12:32 45.368060 -112.143876 59 13033ft 273kts
30-May-19 12:33 45.406367 -112.049943 59 13034ft 274kts
30-May-19 12:34 45.444741 -111.955254 59 13020ft 278kts
30-May-19 12:34 45.476609 -111.876105 59 12708ft 281kts
30-May-19 12:36 45.522015 -111.763881 59 11920ft 277kts
30-May-19 12:37 45.560227 -111.668424 59 11311ft 276kts
30-May-19 12:37 45.590752 -111.588298 62 10733ft 276kts
30-May-19 12:39 45.627196 -111.474271 67 9926ft 275kts
30-May-19 12:40 45.649294 -111.398810 67 9396ft 272kts
30-May-19 12:40 45.673877 -111.315637 67 8704ft 274kts
30-May-19 12:41 45.701234 -111.216443 72 7715ft 250kts
30-May-19 12:43 45.725476 -111.129373 48 5910ft 177kts
30-May-19 12:43 45.749151 -111.112014 320 5439ft 111kts
30-May-19 12:44 45.768641 -111.139381 315 4619ft 85kts
30-May-19 12:46 45.774197 -111.151077 303 4474ft 9kts
30-May-19 12:46 45.774241 -111.154135 285 4474ft 8kts
30-May-19 12:47 45.774656 -111.154846 315 4474ft 0kts
30-May-19 12:48 45.774656 -111.154846 315 4474ft 0kts
30-May-19 12:49 45.774656 -111.154846 315 4474ft 0kts
30-May-19 12:50 45.774656 -111.154846 315 4474ft 0kts

Navigation Log

Ident Type
Flight plan parsing failed, navigation log unavailable